createdAt,value
2018-01-11T00:01:43.911Z,17.45
2018-01-11T00:04:11.423Z,19.60
2018-01-11T00:06:38.936Z,17.23
2018-01-11T00:09:07.219Z,17.42
2018-01-11T00:11:35.483Z,21.05
2018-01-11T00:14:03.159Z,20.20
2018-01-11T00:16:31.440Z,18.30
2018-01-11T00:18:59.719Z,18.58
2018-01-11T00:21:27.986Z,19.08
2018-01-11T00:23:56.339Z,19.65
2018-01-11T00:26:25.363Z,20.42
2018-01-11T00:28:53.628Z,18.77
2018-01-11T00:31:21.126Z,19.87
2018-01-11T00:33:48.624Z,18.85
2018-01-11T00:36:16.119Z,18.33
2018-01-11T00:38:44.387Z,18.90
2018-01-11T00:41:12.643Z,18.65
2018-01-11T00:43:40.407Z,21.67
2018-01-11T00:46:07.908Z,19.27
2018-01-11T00:48:35.542Z,18.10
2018-01-11T00:51:03.811Z,18.58
2018-01-11T00:53:31.319Z,18.75
2018-01-11T00:55:58.831Z,17.95
2018-01-11T00:58:27.113Z,21.65
2018-01-11T01:00:55.380Z,18.85
2018-01-11T01:03:22.879Z,17.60
2018-01-11T01:05:50.375Z,19.90
2018-01-11T01:08:17.888Z,20.35
2018-01-11T01:10:45.396Z,17.75
2018-01-11T01:13:12.891Z,19.23
2018-01-11T01:15:41.159Z,19.48
2018-01-11T01:18:09.423Z,19.73
2018-01-11T01:20:36.930Z,18.60
2018-01-11T01:23:04.431Z,19.10
2018-01-11T01:25:31.927Z,19.90
2018-01-11T01:27:59.426Z,19.42
2018-01-11T01:30:26.966Z,19.58
2018-01-11T01:32:54.474Z,20.62
2018-01-11T01:35:21.982Z,19.65
2018-01-11T01:37:49.485Z,21.25
2018-01-11T01:40:16.987Z,20.92
2018-01-11T01:42:44.490Z,23.20
2018-01-11T01:45:11.983Z,21.67
2018-01-11T01:47:40.252Z,21.08
2018-01-11T01:50:08.630Z,20.45
2018-01-11T01:52:36.895Z,19.15
2018-01-11T01:55:04.400Z,20.50
2018-01-11T01:57:31.908Z,19.73
2018-01-11T01:59:59.412Z,21.62
2018-01-11T02:02:26.910Z,21.20
2018-01-11T02:04:54.427Z,19.50
2018-01-11T02:07:21.919Z,20.58
2018-01-11T02:09:49.430Z,18.87
2018-01-11T02:12:16.935Z,19.83
2018-01-11T02:14:44.472Z,20.00
2018-01-11T02:17:11.978Z,20.67
2018-01-11T02:19:39.499Z,19.55
2018-01-11T02:22:07.000Z,25.02
2018-01-11T02:24:35.586Z,18.50
2018-01-11T02:27:03.847Z,18.90
2018-01-11T02:29:31.342Z,18.33
2018-01-11T02:31:58.852Z,20.20
2018-01-11T02:34:26.352Z,18.00
2018-01-11T02:36:53.875Z,18.80
2018-01-11T02:39:21.395Z,18.92
2018-01-11T02:41:48.899Z,16.58
2018-01-11T02:44:16.417Z,15.27
2018-01-11T02:46:43.913Z,17.65
2018-01-11T02:49:11.425Z,20.55
2018-01-11T02:51:38.939Z,15.73
2018-01-11T02:54:06.436Z,19.65
2018-01-11T02:56:33.951Z,21.00
2018-01-11T02:59:01.752Z,16.48
2018-01-11T03:01:29.259Z,17.08
2018-01-11T03:03:56.769Z,18.10
2018-01-11T03:06:24.291Z,15.40
2018-01-11T03:08:51.793Z,19.60
2018-01-11T03:11:19.311Z,16.08
2018-01-11T03:13:46.808Z,14.95
2018-01-11T03:16:14.334Z,16.33
2018-01-11T03:18:42.596Z,14.35
2018-01-11T03:21:10.885Z,16.48
2018-01-11T03:23:39.163Z,14.77
2018-01-11T03:26:07.429Z,15.07
2018-01-11T03:28:34.983Z,21.10
2018-01-11T03:31:02.455Z,14.60
2018-01-11T03:33:30.735Z,18.40
2018-01-11T03:35:58.998Z,15.48
2018-01-11T03:38:26.497Z,16.70
2018-01-11T03:40:54.011Z,15.18
2018-01-11T03:43:21.506Z,21.02
2018-01-11T03:45:49.008Z,22.58
2018-01-11T03:48:16.507Z,16.25
2018-01-11T03:50:44.774Z,17.98
2018-01-11T03:53:13.048Z,16.73
2018-01-11T03:55:40.540Z,16.90
2018-01-11T03:58:08.039Z,16.90
2018-01-11T04:00:35.531Z,22.20
2018-01-11T04:03:04.119Z,16.37
2018-01-11T04:05:32.394Z,21.30
2018-01-11T04:08:00.659Z,18.25
2018-01-11T04:10:28.963Z,19.08
2018-01-11T04:12:56.602Z,20.12
2018-01-11T04:15:25.087Z,19.00
2018-01-11T04:17:53.358Z,15.85
2018-01-11T04:20:21.634Z,20.92
2018-01-11T04:22:49.895Z,16.98
2018-01-11T04:25:17.410Z,18.42
2018-01-11T04:27:44.929Z,19.48
2018-01-11T04:30:13.187Z,22.00
2018-01-11T04:32:41.074Z,23.67
2018-01-11T04:35:09.339Z,19.33
2018-01-11T04:37:37.614Z,19.37
2018-01-11T04:40:05.163Z,20.05
2018-01-11T04:42:32.702Z,23.50
2018-01-11T04:45:00.203Z,23.52
2018-01-11T04:47:28.465Z,18.30
2018-01-11T04:49:56.041Z,23.62
2018-01-11T04:52:24.302Z,21.80
2018-01-11T04:54:51.827Z,29.37
2018-01-11T04:57:19.327Z,42.95
2018-01-11T04:59:47.607Z,41.90
2018-01-11T05:02:15.864Z,33.00
2018-01-11T05:04:43.361Z,25.60
2018-01-11T05:07:10.866Z,24.37
2018-01-11T05:09:38.374Z,21.73
2018-01-11T05:12:05.910Z,22.50
2018-01-11T05:14:34.170Z,22.92
2018-01-11T05:17:01.771Z,24.08
2018-01-11T05:19:29.270Z,31.27
2018-01-11T05:21:56.771Z,23.25
2018-01-11T05:24:25.052Z,25.15
2018-01-11T05:26:53.310Z,25.62
2018-01-11T05:29:20.810Z,27.77
2018-01-11T05:31:48.328Z,24.92
2018-01-11T05:34:15.830Z,23.70
2018-01-11T05:36:43.334Z,25.92
2018-01-11T05:39:11.019Z,24.23
2018-01-11T05:41:39.295Z,25.40
2018-01-11T05:44:07.551Z,23.65
2018-01-11T05:46:35.048Z,22.13
2018-01-11T05:49:02.546Z,22.75
2018-01-11T05:51:30.051Z,24.20
2018-01-11T05:53:58.352Z,24.80
2018-01-11T05:56:25.849Z,26.05
2018-01-11T05:58:53.387Z,28.52
2018-01-11T06:01:21.015Z,23.65
2018-01-11T06:03:48.532Z,28.20
2018-01-11T06:06:16.039Z,23.12
2018-01-11T06:08:43.536Z,28.67
2018-01-11T06:11:11.039Z,30.65
2018-01-11T06:13:39.294Z,39.60
2018-01-11T06:16:06.807Z,38.63
2018-01-11T06:18:34.303Z,44.45
2018-01-11T06:21:01.799Z,34.80
2018-01-11T06:23:29.447Z,38.55
2018-01-11T06:25:57.751Z,34.78
2018-01-11T06:28:25.260Z,30.65
2018-01-11T06:30:53.017Z,34.63
2018-01-11T06:33:20.512Z,36.42
2018-01-11T06:35:48.775Z,35.95
2018-01-11T06:38:17.070Z,38.85
2018-01-11T06:40:44.583Z,116.12
2018-01-11T06:43:12.091Z,97.05
2018-01-11T06:45:39.602Z,51.50
2018-01-11T06:48:07.114Z,34.08
2018-01-11T06:50:34.639Z,33.40
2018-01-11T06:53:02.515Z,29.87
2018-01-11T06:55:30.794Z,32.03
2018-01-11T06:57:59.083Z,34.25
2018-01-11T07:00:26.600Z,37.13
2018-01-11T07:02:54.109Z,35.13
2018-01-11T07:05:21.607Z,35.20
2018-01-11T07:07:49.110Z,34.83
2018-01-11T07:10:17.586Z,29.27
2018-01-11T07:12:45.849Z,27.75
2018-01-11T07:15:13.467Z,26.95
2018-01-11T07:17:41.182Z,29.80
2018-01-11T07:20:09.531Z,27.20
2018-01-11T07:22:37.223Z,22.33
2018-01-11T07:25:05.475Z,21.70
2018-01-11T07:27:33.019Z,24.48
2018-01-11T07:30:00.535Z,24.92
2018-01-11T07:32:28.387Z,27.40
2018-01-11T07:34:56.643Z,27.75
2018-01-11T07:37:26.066Z,29.15
2018-01-11T07:39:54.347Z,31.62
2018-01-11T07:42:22.623Z,28.90
2018-01-11T07:44:50.899Z,29.20
2018-01-11T07:47:19.158Z,29.73
2018-01-11T07:49:47.436Z,28.42
2018-01-11T07:52:15.703Z,25.50
2018-01-11T07:54:43.211Z,27.60
2018-01-11T07:57:10.763Z,24.20
2018-01-11T07:59:39.042Z,25.17
2018-01-11T08:02:06.590Z,24.45
2018-01-11T08:04:34.104Z,24.77
2018-01-11T08:07:01.650Z,29.60
2018-01-11T08:09:29.591Z,22.50
2018-01-11T08:11:57.095Z,24.15
2018-01-11T08:14:24.708Z,25.88
2018-01-11T08:16:52.278Z,27.48
2018-01-11T08:19:19.843Z,25.67
2018-01-11T08:21:47.394Z,26.70
2018-01-11T08:24:14.956Z,25.08
2018-01-11T08:26:42.532Z,30.85
2018-01-11T08:29:10.134Z,28.02
2018-01-11T08:31:38.496Z,27.17
2018-01-11T08:34:06.030Z,25.88
2018-01-11T08:36:33.988Z,25.05
2018-01-11T08:39:01.826Z,29.37
2018-01-11T08:41:29.701Z,24.02
2018-01-11T08:43:57.242Z,25.85
2018-01-11T08:46:25.653Z,27.62
2018-01-11T08:48:53.219Z,24.80
2018-01-11T08:51:20.764Z,26.70
2018-01-11T08:53:48.608Z,26.50
2018-01-11T08:56:16.921Z,23.67
2018-01-11T08:58:44.451Z,25.65
2018-01-11T09:01:12.091Z,23.50
2018-01-11T09:03:40.376Z,25.40
2018-01-11T09:06:08.712Z,27.02
2018-01-11T09:08:36.224Z,25.65
2018-01-11T09:11:03.750Z,28.62
2018-01-11T09:13:31.302Z,22.25
2018-01-11T09:15:58.835Z,23.90
2018-01-11T09:18:26.356Z,25.20
2018-01-11T09:20:54.652Z,24.60
2018-01-11T09:23:22.187Z,22.40
2018-01-11T09:25:50.477Z,18.37
2018-01-11T09:28:18.036Z,23.05
2018-01-11T09:30:45.540Z,18.52
2018-01-11T09:33:13.095Z,22.77
2018-01-11T09:35:40.746Z,19.85
2018-01-11T09:38:08.680Z,24.08
2018-01-11T09:40:36.203Z,21.10
2018-01-11T09:43:03.746Z,22.45
2018-01-11T09:45:32.936Z,21.02
2018-01-11T09:48:00.481Z,20.60
2018-01-11T09:50:28.024Z,20.80
2018-01-11T09:52:55.691Z,16.58
2018-01-11T09:55:23.249Z,19.75
2018-01-11T09:57:50.835Z,19.50
2018-01-11T10:00:18.384Z,22.55
2018-01-11T10:02:46.344Z,19.75
2018-01-11T10:05:13.959Z,17.83
2018-01-11T10:07:42.251Z,20.08
2018-01-11T10:10:10.539Z,16.75
2018-01-11T10:12:38.079Z,15.60
2018-01-11T10:15:06.346Z,14.80
2018-01-11T10:17:34.616Z,15.07
2018-01-11T10:20:02.150Z,14.15
2018-01-11T10:22:29.647Z,12.88
2018-01-11T10:24:58.678Z,13.60
2018-01-11T10:27:26.190Z,17.15
2018-01-11T10:29:54.459Z,14.60
2018-01-11T10:32:21.975Z,15.20
2018-01-11T10:34:49.799Z,15.45
2018-01-11T10:37:18.075Z,15.02
2018-01-11T10:39:46.342Z,13.27
2018-01-11T10:42:13.841Z,18.87
2018-01-11T10:44:41.338Z,13.70
2018-01-11T10:47:08.836Z,14.75
2018-01-11T10:49:37.111Z,16.12
2018-01-11T10:52:05.384Z,12.25
2018-01-11T10:54:33.806Z,11.38
2018-01-11T10:57:01.366Z,12.40
2018-01-11T10:59:29.078Z,12.60
2018-01-11T11:02:03.147Z,11.90
2018-01-11T11:04:30.670Z,13.13
2018-01-11T11:06:58.172Z,16.70
2018-01-11T11:09:25.664Z,11.75
2018-01-11T11:11:53.983Z,12.50
2018-01-11T11:14:21.507Z,11.52
2018-01-11T11:16:49.766Z,11.45
2018-01-11T11:19:18.027Z,14.40
2018-01-11T11:21:45.525Z,11.45
2018-01-11T11:24:13.832Z,11.35
2018-01-11T11:26:41.356Z,11.75
2018-01-11T11:29:10.038Z,15.90
2018-01-11T11:31:38.315Z,13.60
2018-01-11T11:34:06.583Z,11.55
2018-01-11T11:36:34.843Z,10.73
2018-01-11T11:39:03.103Z,13.00
2018-01-11T11:41:30.655Z,13.82
2018-01-11T11:43:58.151Z,14.77
2018-01-11T11:46:25.647Z,12.10
2018-01-11T11:48:53.150Z,12.85
2018-01-11T11:51:20.679Z,12.35
2018-01-11T11:53:48.503Z,14.52
2018-01-11T11:56:16.763Z,15.27
2018-01-11T11:58:44.445Z,16.52
2018-01-11T12:01:12.760Z,15.15
2018-01-11T12:03:40.284Z,14.10
2018-01-11T12:06:08.542Z,13.48
2018-01-11T12:08:36.807Z,13.48
2018-01-11T12:11:04.309Z,15.80
2018-01-11T12:13:31.806Z,13.40
2018-01-11T12:15:59.507Z,16.55
2018-01-11T12:18:27.768Z,15.90
2018-01-11T12:20:55.264Z,16.12
2018-01-11T12:23:22.754Z,17.48
2018-01-11T12:25:50.255Z,14.93
2018-01-11T12:28:18.531Z,14.48
2018-01-11T12:30:46.812Z,15.32
2018-01-11T12:33:15.074Z,15.25
2018-01-11T12:35:42.586Z,13.55
2018-01-11T12:38:10.087Z,18.60
2018-01-11T12:40:37.599Z,18.60
2018-01-11T12:43:05.143Z,13.85
2018-01-11T12:45:32.642Z,14.48
2018-01-11T12:48:00.138Z,17.87
2018-01-11T12:50:28.395Z,15.90
2018-01-11T12:52:56.655Z,16.58
2018-01-11T12:55:24.170Z,15.90
2018-01-11T12:57:51.667Z,13.65
2018-01-11T13:00:19.184Z,15.45
2018-01-11T13:02:46.690Z,16.17
2018-01-11T13:05:14.210Z,15.15
2018-01-11T13:07:41.707Z,19.12
2018-01-11T13:10:09.210Z,17.05
2018-01-11T13:12:36.711Z,15.40
2018-01-11T13:15:04.629Z,17.23
2018-01-11T13:17:32.896Z,16.67
2018-01-11T13:20:00.431Z,15.60
2018-01-11T13:22:28.722Z,15.52
2018-01-11T13:24:57.418Z,14.52
2018-01-11T13:27:25.708Z,17.10
2018-01-11T13:29:53.216Z,19.90
2018-01-11T13:32:20.743Z,19.48
2018-01-11T13:34:48.251Z,19.80
2018-01-11T13:37:15.770Z,19.50
2018-01-11T13:39:43.270Z,16.50
2018-01-11T13:42:10.775Z,19.23
2018-01-11T13:44:38.293Z,16.33
2018-01-11T13:47:06.722Z,14.00
2018-01-11T13:49:34.211Z,14.52
2018-01-11T13:52:01.716Z,13.52
2018-01-11T13:54:32.055Z,15.13
2018-01-11T13:56:59.563Z,18.62
2018-01-11T13:59:28.571Z,16.10
2018-01-11T14:01:56.878Z,14.87
2018-01-11T14:04:24.407Z,16.60
2018-01-11T14:06:52.690Z,14.87
2018-01-11T14:09:20.953Z,16.05
2018-01-11T14:11:49.215Z,14.55
2018-01-11T14:14:16.759Z,16.27
2018-01-11T14:16:44.473Z,16.75
2018-01-11T14:19:11.979Z,15.55
2018-01-11T14:21:39.478Z,16.70
2018-01-11T14:24:07.746Z,16.12
2018-01-11T14:26:36.039Z,15.15
2018-01-11T14:29:04.301Z,17.60
2018-01-11T14:31:32.577Z,103.30
2018-01-11T14:34:00.855Z,27.02
2018-01-11T14:36:29.147Z,20.17
2018-01-11T14:38:57.413Z,22.30
2018-01-11T14:41:25.690Z,17.80
2018-01-11T14:43:53.959Z,15.75
2018-01-11T14:46:22.971Z,16.20
2018-01-11T14:48:50.491Z,14.85
2018-01-11T14:51:17.986Z,16.52
2018-01-11T14:53:45.503Z,16.80
2018-01-11T14:56:13.002Z,17.27
2018-01-11T14:58:41.331Z,17.42
2018-01-11T15:01:08.860Z,19.10
2018-01-11T15:03:36.367Z,15.73
2018-01-11T15:06:03.874Z,16.40
2018-01-11T15:08:31.371Z,17.02
2018-01-11T15:10:58.871Z,16.23
2018-01-11T15:13:26.391Z,14.73
2018-01-11T15:15:53.890Z,16.85
2018-01-11T15:18:21.438Z,15.82
2018-01-11T15:20:49.710Z,18.87
2018-01-11T15:23:17.973Z,18.85
2018-01-11T15:25:45.472Z,18.98
2018-01-11T15:28:12.991Z,21.20
2018-01-11T15:30:42.410Z,17.77
2018-01-11T15:33:10.998Z,29.27
2018-01-11T15:35:39.267Z,19.27
2018-01-11T15:38:07.542Z,15.77
2018-01-11T15:40:35.838Z,16.80
2018-01-11T15:43:03.338Z,17.27
2018-01-11T15:45:30.862Z,18.95
2018-01-11T15:47:58.398Z,19.73
2018-01-11T15:50:26.666Z,20.80
2018-01-11T15:52:55.050Z,14.90
2018-01-11T15:55:23.329Z,18.33
2018-01-11T15:57:51.610Z,18.33
2018-01-11T16:00:19.889Z,16.80
2018-01-11T16:02:48.163Z,18.02
2018-01-11T16:05:16.429Z,15.73
2018-01-11T16:07:44.711Z,17.27
2018-01-11T16:10:13.022Z,18.20
2018-01-11T16:12:41.035Z,18.98
2018-01-11T16:15:09.295Z,16.35
2018-01-11T16:17:36.830Z,18.10
2018-01-11T16:20:04.315Z,15.70
2018-01-11T16:22:31.860Z,15.93
2018-01-11T16:24:59.411Z,16.83
2018-01-11T16:27:26.900Z,17.65
2018-01-11T16:29:54.394Z,15.02
2018-01-11T16:32:21.938Z,18.25
2018-01-11T16:34:50.236Z,17.75
2018-01-11T16:37:17.770Z,19.42
2018-01-11T16:39:45.255Z,15.70
2018-01-11T16:42:12.784Z,19.15
2018-01-11T16:44:40.663Z,15.43
2018-01-11T16:47:09.452Z,22.13
2018-01-11T16:49:37.716Z,18.90
2018-01-11T16:52:05.247Z,16.10
2018-01-11T16:54:32.747Z,15.38
2018-01-11T16:57:01.031Z,18.00
2018-01-11T16:59:29.307Z,16.75
2018-01-11T17:01:57.575Z,15.32
2018-01-11T17:04:25.845Z,15.85
2018-01-11T17:06:54.127Z,18.10
2018-01-11T17:09:22.390Z,17.60
2018-01-11T17:11:49.884Z,18.50
2018-01-11T17:14:17.394Z,16.37
2018-01-11T17:16:45.287Z,16.85
2018-01-11T17:19:13.562Z,16.50
2018-01-11T17:21:41.826Z,19.00
2018-01-11T17:24:09.338Z,20.83
2018-01-11T17:26:36.839Z,18.33
2018-01-11T17:29:04.360Z,22.77
2018-01-11T17:31:31.882Z,22.58
2018-01-11T17:34:00.145Z,22.42
2018-01-11T17:36:28.410Z,26.95
2018-01-11T17:38:55.942Z,20.65
2018-01-11T17:41:23.455Z,23.48
2018-01-11T17:43:50.959Z,29.65
2018-01-11T17:46:18.807Z,24.48
2018-01-11T17:48:46.303Z,28.27
2018-01-11T17:51:13.795Z,26.62
2018-01-11T17:53:41.420Z,25.20
2018-01-11T17:56:10.435Z,27.00
2018-01-11T17:58:37.966Z,26.80
2018-01-11T18:01:05.463Z,26.35
2018-01-11T18:03:33.725Z,27.73
2018-01-11T18:06:01.997Z,30.67
2018-01-11T18:08:30.270Z,32.67
2018-01-11T18:10:58.547Z,35.58
2018-01-11T18:13:26.816Z,37.50
2018-01-11T18:15:54.316Z,41.28
2018-01-11T18:18:21.818Z,44.35
2018-01-11T18:20:49.311Z,43.95
2018-01-11T18:23:17.589Z,39.40
2018-01-11T18:25:45.847Z,38.95
2018-01-11T18:28:13.359Z,41.53
2018-01-11T18:30:40.880Z,44.03
2018-01-11T18:33:09.210Z,39.28
2018-01-11T18:35:36.706Z,39.53
2018-01-11T18:38:04.992Z,43.35
2018-01-11T18:40:33.299Z,44.00
2018-01-11T18:43:00.795Z,46.85
2018-01-11T18:45:29.184Z,42.65
2018-01-11T18:47:56.711Z,41.53
2018-01-11T18:50:24.226Z,45.58
2018-01-11T18:52:52.483Z,41.28
2018-01-11T18:55:20.045Z,37.05
2018-01-11T18:57:47.500Z,41.20
2018-01-11T19:00:15.778Z,40.05
2018-01-11T19:02:44.063Z,39.00
2018-01-11T19:05:12.371Z,27.60
2018-01-11T19:07:39.874Z,30.35
2018-01-11T19:10:07.377Z,25.10
2018-01-11T19:12:34.919Z,29.77
2018-01-11T19:15:03.179Z,23.83
2018-01-11T19:17:30.718Z,22.83
2018-01-11T19:19:58.216Z,27.08
2018-01-11T19:22:26.483Z,41.92
2018-01-11T19:24:54.742Z,39.65
2018-01-11T19:27:22.249Z,44.47
2018-01-11T19:29:49.783Z,46.33
2018-01-11T19:32:18.047Z,36.35
2018-01-11T19:34:46.307Z,39.45
2018-01-11T19:37:13.828Z,32.67
2018-01-11T19:39:41.338Z,34.28
2018-01-11T19:42:08.836Z,35.58
2018-01-11T19:44:36.335Z,31.42
2018-01-11T19:47:03.839Z,27.67
2018-01-11T19:49:31.347Z,29.35
2018-01-11T19:51:58.839Z,26.48
2018-01-11T19:54:27.119Z,31.02
2018-01-11T19:56:55.387Z,30.45
2018-01-11T19:59:23.700Z,26.92
2018-01-11T20:01:51.178Z,25.25
2018-01-11T20:04:18.688Z,25.30
2018-01-11T20:06:46.958Z,26.83
2018-01-11T20:09:15.224Z,24.08
2018-01-11T20:11:42.735Z,26.27
2018-01-11T20:14:10.271Z,27.25
2018-01-11T20:16:37.802Z,26.95
2018-01-11T20:19:05.303Z,25.73
2018-01-11T20:21:32.854Z,24.87
2018-01-11T20:24:00.359Z,27.15
2018-01-11T20:26:27.883Z,21.83
2018-01-11T20:28:55.439Z,21.40
2018-01-11T20:31:22.970Z,22.73
2018-01-11T20:33:51.251Z,21.33
2018-01-11T20:36:18.771Z,20.33
2018-01-11T20:38:46.269Z,22.05
2018-01-11T20:41:14.534Z,21.85
2018-01-11T20:43:42.806Z,21.10
2018-01-11T20:46:11.100Z,20.90
2018-01-11T20:48:39.415Z,16.77
2018-01-11T20:51:06.944Z,21.42
2018-01-11T20:53:34.451Z,21.17
2018-01-11T20:56:01.955Z,21.05
2018-01-11T20:58:29.456Z,21.83
2018-01-11T21:00:57.007Z,21.52
2018-01-11T21:03:24.518Z,21.52
2018-01-11T21:05:52.798Z,21.92
2018-01-11T21:08:20.339Z,22.83
2018-01-11T21:10:47.839Z,23.35
2018-01-11T21:13:15.351Z,23.90
2018-01-11T21:15:42.918Z,22.77
2018-01-11T21:18:10.417Z,28.27
2018-01-11T21:20:37.935Z,36.42
2018-01-11T21:23:05.429Z,29.63
2018-01-11T21:25:33.043Z,28.15
2018-01-11T21:28:00.734Z,25.98
2018-01-11T21:30:29.007Z,26.33
2018-01-11T21:32:57.315Z,23.83
2018-01-11T21:35:24.812Z,24.98
2018-01-11T21:37:52.307Z,23.58
2018-01-11T21:40:20.571Z,23.67
2018-01-11T21:42:48.851Z,26.92
2018-01-11T21:45:17.106Z,25.35
2018-01-11T21:47:44.603Z,28.10
2018-01-11T21:50:12.211Z,24.52
2018-01-11T21:52:39.713Z,27.37
2018-01-11T21:55:08.022Z,24.90
2018-01-11T21:57:35.518Z,26.95
2018-01-11T22:00:03.020Z,28.12
2018-01-11T22:02:30.537Z,29.37
2018-01-11T22:04:58.047Z,28.52
2018-01-11T22:07:25.539Z,23.30
2018-01-11T22:09:53.045Z,22.90
2018-01-11T22:12:20.587Z,21.15
2018-01-11T22:14:49.066Z,28.00
2018-01-11T22:17:17.330Z,31.00
2018-01-11T22:19:44.832Z,34.20
2018-01-11T22:22:12.332Z,29.08
2018-01-11T22:24:39.839Z,30.55
2018-01-11T22:27:07.337Z,27.27
2018-01-11T22:29:34.835Z,32.88
2018-01-11T22:32:03.115Z,29.98
2018-01-11T22:34:31.376Z,29.48
2018-01-11T22:36:58.877Z,28.02
2018-01-11T22:39:26.395Z,25.75
2018-01-11T22:41:53.896Z,28.20
2018-01-11T22:44:21.410Z,26.80
2018-01-11T22:46:48.932Z,21.45
2018-01-11T22:49:16.444Z,22.30
2018-01-11T22:51:44.723Z,21.48
2018-01-11T22:54:12.983Z,20.27
2018-01-11T22:56:41.247Z,20.30
2018-01-11T22:59:09.528Z,23.73
2018-01-11T23:01:37.067Z,20.52
2018-01-11T23:04:04.555Z,21.85
2018-01-11T23:06:32.838Z,18.65
2018-01-11T23:09:01.098Z,22.45
2018-01-11T23:11:34.207Z,23.73
2018-01-11T23:14:02.491Z,22.90
2018-01-11T23:16:29.999Z,20.05
2018-01-11T23:18:57.507Z,25.17
2018-01-11T23:21:25.766Z,22.58
2018-01-11T23:23:54.038Z,18.42
2018-01-11T23:26:21.533Z,27.45
2018-01-11T23:28:49.044Z,22.70
2018-01-11T23:31:16.543Z,26.40
2018-01-11T23:33:44.047Z,22.17
2018-01-11T23:36:11.557Z,26.75
2018-01-11T23:38:39.059Z,22.45
2018-01-11T23:41:06.558Z,18.98
2018-01-11T23:43:34.863Z,24.20
2018-01-11T23:46:02.397Z,22.25
2018-01-11T23:48:30.699Z,21.98
2018-01-11T23:50:58.198Z,20.42
2018-01-11T23:53:25.694Z,18.65
2018-01-11T23:55:53.967Z,17.50
2018-01-11T23:58:22.439Z,21.95
